createdAt,value
2023-02-22T00:01:51.389Z,8.37
2023-02-22T00:04:21.476Z,8.34
2023-02-22T00:06:50.060Z,8.42
2023-02-22T00:09:20.847Z,8.30
2023-02-22T00:11:49.139Z,8.57
2023-02-22T00:14:16.035Z,8.79
2023-02-22T00:16:42.958Z,9.09
2023-02-22T00:19:10.712Z,9.18
2023-02-22T00:21:37.672Z,9.26
2023-02-22T00:24:23.210Z,9.36
2023-02-22T00:26:52.122Z,9.44
2023-02-22T00:29:18.989Z,9.47
2023-02-22T00:31:45.950Z,9.55
2023-02-22T00:34:14.649Z,9.57
2023-02-22T00:36:49.328Z,9.52
2023-02-22T00:39:16.791Z,9.50
2023-02-22T00:41:43.931Z,9.52
2023-02-22T00:44:11.894Z,9.41
2023-02-22T00:46:39.589Z,9.37
2023-02-22T00:49:06.895Z,9.40
2023-02-22T00:51:34.130Z,9.36
2023-02-22T00:54:01.830Z,9.28
2023-02-22T00:56:28.935Z,9.22
2023-02-22T00:58:56.271Z,9.25
2023-02-22T01:01:24.415Z,9.15
2023-02-22T01:03:51.619Z,9.03
2023-02-22T01:06:18.800Z,8.99
2023-02-22T01:08:47.195Z,8.79
2023-02-22T01:11:17.054Z,8.67
2023-02-22T01:13:45.482Z,8.45
2023-02-22T01:16:12.893Z,8.30
2023-02-22T01:18:40.231Z,8.23
2023-02-22T01:21:07.259Z,8.17
2023-02-22T01:23:35.359Z,7.98
2023-02-22T01:26:04.447Z,7.97
2023-02-22T01:28:32.216Z,7.86
2023-02-22T01:30:59.237Z,7.80
2023-02-22T01:33:26.188Z,7.83
2023-02-22T01:35:53.413Z,7.67
2023-02-22T01:38:20.526Z,7.54
2023-02-22T01:40:50.202Z,7.46
2023-02-22T01:43:32.298Z,7.52
2023-02-22T01:45:59.207Z,7.39
2023-02-22T01:48:45.237Z,7.74
2023-02-22T01:51:18.652Z,7.91
2023-02-22T01:53:56.909Z,8.21
2023-02-22T01:56:26.450Z,8.33
2023-02-22T01:58:58.587Z,8.39
2023-02-22T02:01:26.505Z,8.41
2023-02-22T02:03:58.372Z,8.30
2023-02-22T02:06:28.139Z,8.19
2023-02-22T02:09:04.090Z,8.06
2023-02-22T02:11:32.593Z,7.85
2023-02-22T02:14:00.172Z,7.59
2023-02-22T02:16:39.230Z,7.33
2023-02-22T02:19:18.558Z,7.04
2023-02-22T02:22:04.400Z,6.85
2023-02-22T02:25:05.323Z,6.67
2023-02-22T02:27:52.478Z,6.53
2023-02-22T02:30:42.023Z,6.43
2023-02-22T02:33:35.875Z,6.35
2023-02-22T02:36:19.834Z,6.28
2023-02-22T02:38:56.085Z,6.22
2023-02-22T02:41:33.778Z,6.10
2023-02-22T02:44:11.594Z,6.05
2023-02-22T02:46:52.280Z,6.15
2023-02-22T02:49:26.359Z,6.13
2023-02-22T02:51:56.157Z,6.05
2023-02-22T02:54:25.043Z,6.25
2023-02-22T02:56:52.836Z,6.47
2023-02-22T02:59:34.605Z,6.57
2023-02-22T03:02:11.862Z,6.59
2023-02-22T03:05:09.330Z,6.61
2023-02-22T03:07:57.200Z,6.53
2023-02-22T03:10:54.672Z,6.44
2023-02-22T03:13:49.309Z,6.45
2023-02-22T03:16:39.928Z,6.41
2023-02-22T03:19:33.006Z,6.33
2023-02-22T03:22:18.154Z,6.24
2023-02-22T03:24:53.305Z,6.25
2023-02-22T03:27:24.976Z,6.09
2023-02-22T03:30:00.533Z,5.98
2023-02-22T03:32:36.308Z,5.91
2023-02-22T03:35:11.122Z,5.93
2023-02-22T03:37:42.608Z,5.94
2023-02-22T03:40:15.159Z,5.91
2023-02-22T03:42:53.061Z,5.94
2023-02-22T03:45:25.334Z,5.82
2023-02-22T03:48:12.035Z,5.73
2023-02-22T03:50:39.302Z,5.76
2023-02-22T03:53:07.753Z,5.69
2023-02-22T03:55:37.335Z,5.73
2023-02-22T03:58:11.040Z,5.74
2023-02-22T04:00:38.922Z,5.81
2023-02-22T04:03:05.987Z,5.66
2023-02-22T04:05:36.061Z,5.66
2023-02-22T04:08:02.978Z,5.78
2023-02-22T04:10:31.852Z,5.57
2023-02-22T04:12:59.961Z,5.59
2023-02-22T04:15:26.877Z,5.45
2023-02-22T04:17:59.795Z,5.41
2023-02-22T04:20:27.297Z,5.34
2023-02-22T04:23:07.378Z,5.28
2023-02-22T04:25:37.847Z,5.16
2023-02-22T04:28:11.401Z,5.22
2023-02-22T04:30:50.369Z,5.17
2023-02-22T04:33:18.790Z,5.06
2023-02-22T04:35:46.303Z,5.09
2023-02-22T04:38:13.552Z,5.05
2023-02-22T04:40:41.051Z,5.07
2023-02-22T04:43:08.386Z,5.16
2023-02-22T04:45:35.208Z,5.39
2023-02-22T04:48:03.893Z,5.20
2023-02-22T04:50:30.681Z,5.27
2023-02-22T04:52:57.690Z,5.20
2023-02-22T04:55:24.791Z,5.11
2023-02-22T04:57:51.723Z,5.08
2023-02-22T05:00:21.905Z,5.09
2023-02-22T05:02:50.810Z,5.34
2023-02-22T05:05:21.652Z,5.28
2023-02-22T05:07:49.547Z,5.44
2023-02-22T05:10:16.970Z,5.50
2023-02-22T05:12:43.903Z,5.52
2023-02-22T05:15:11.268Z,5.40
2023-02-22T05:17:38.196Z,5.33
2023-02-22T05:20:05.468Z,5.20
2023-02-22T05:22:32.353Z,5.20
2023-02-22T05:24:59.177Z,5.17
2023-02-22T05:27:27.201Z,5.05
2023-02-22T05:29:54.027Z,5.07
2023-02-22T05:32:20.864Z,5.07
2023-02-22T05:34:47.709Z,5.05
2023-02-22T05:37:14.746Z,4.99
2023-02-22T05:39:41.910Z,4.93
2023-02-22T05:42:08.898Z,4.91
2023-02-22T05:44:35.723Z,4.83
2023-02-22T05:47:02.606Z,4.98
2023-02-22T05:49:29.514Z,4.97
2023-02-22T05:51:59.709Z,4.87
2023-02-22T05:54:26.477Z,5.01
2023-02-22T05:56:53.249Z,4.98
2023-02-22T05:59:20.965Z,4.99
2023-02-22T06:01:47.902Z,5.06
2023-02-22T06:04:14.814Z,5.01
2023-02-22T06:06:42.822Z,5.01
2023-02-22T06:09:09.825Z,5.11
2023-02-22T06:11:37.360Z,5.13
2023-02-22T06:14:04.267Z,5.13
2023-02-22T06:16:32.002Z,5.07
2023-02-22T06:19:00.037Z,5.08
2023-02-22T06:21:30.514Z,5.12
2023-02-22T06:23:57.509Z,5.20
2023-02-22T06:26:24.405Z,5.24
2023-02-22T06:28:52.335Z,5.26
2023-02-22T06:31:19.516Z,5.50
2023-02-22T06:33:46.729Z,5.49
2023-02-22T06:36:13.707Z,5.59
2023-02-22T06:38:40.625Z,5.61
2023-02-22T06:41:09.994Z,5.69
2023-02-22T06:43:36.864Z,5.74
2023-02-22T06:46:03.832Z,5.73
2023-02-22T06:48:33.890Z,5.81
2023-02-22T06:51:01.043Z,5.91
2023-02-22T06:53:28.706Z,5.87
2023-02-22T06:55:56.072Z,6.03
2023-02-22T06:58:23.296Z,6.17
2023-02-22T07:00:50.353Z,6.19
2023-02-22T07:03:25.114Z,6.36
2023-02-22T07:05:52.812Z,6.57
2023-02-22T07:08:21.207Z,6.63
2023-02-22T07:10:50.553Z,6.55
2023-02-22T07:13:17.530Z,6.69
2023-02-22T07:15:45.152Z,6.86
2023-02-22T07:18:12.673Z,6.90
2023-02-22T07:20:40.016Z,7.18
2023-02-22T07:23:07.124Z,7.23
2023-02-22T07:25:34.703Z,7.34
2023-02-22T07:28:01.858Z,7.40
2023-02-22T07:30:34.399Z,7.35
2023-02-22T07:33:07.621Z,7.44
2023-02-22T07:35:46.645Z,7.57
2023-02-22T07:53:33.820Z,8.56
2023-02-22T07:56:05.445Z,8.51
2023-02-22T07:58:33.066Z,8.49
2023-02-22T08:01:02.404Z,8.46
2023-02-22T08:03:34.496Z,8.61
2023-02-22T08:06:03.184Z,8.65
2023-02-22T08:08:30.053Z,8.60
2023-02-22T08:10:57.130Z,8.51
2023-02-22T08:13:24.660Z,8.71
2023-02-22T08:15:53.845Z,8.84
2023-02-22T08:18:22.016Z,8.67
2023-02-22T08:20:50.575Z,8.41
2023-02-22T08:23:19.600Z,8.40
2023-02-22T08:25:46.503Z,8.26
2023-02-22T08:28:16.721Z,8.54
2023-02-22T08:30:46.831Z,8.58
2023-02-22T08:33:16.141Z,8.23
2023-02-22T08:35:43.445Z,8.43
2023-02-22T08:38:21.714Z,8.42
2023-02-22T08:40:49.967Z,8.47
2023-02-22T08:43:17.887Z,8.58
2023-02-22T08:45:46.048Z,8.81
2023-02-22T08:48:14.271Z,9.14
2023-02-22T08:50:42.024Z,9.43
2023-02-22T08:53:10.122Z,9.30
2023-02-22T08:55:38.668Z,9.52
2023-02-22T08:58:09.619Z,9.41
2023-02-22T09:00:39.046Z,9.23
2023-02-22T09:03:16.093Z,9.50
2023-02-22T09:05:44.176Z,9.51
2023-02-22T09:08:11.802Z,9.70
2023-02-22T09:10:39.027Z,9.87
2023-02-22T09:13:06.546Z,9.73
2023-02-22T09:15:36.379Z,9.39
2023-02-22T09:18:05.284Z,9.86
2023-02-22T09:20:32.194Z,10.27
2023-02-22T09:22:59.677Z,10.38
2023-02-22T09:25:27.903Z,10.38
2023-02-22T09:27:55.994Z,10.62
2023-02-22T09:30:27.122Z,10.67
2023-02-22T09:32:58.074Z,10.69
2023-02-22T09:35:29.719Z,10.89
2023-02-22T09:37:57.990Z,11.06
2023-02-22T09:40:30.410Z,11.19
2023-02-22T09:43:38.096Z,11.19
2023-02-22T09:46:34.745Z,11.24
2023-02-22T09:49:05.499Z,11.15
2023-02-22T09:51:35.945Z,11.39
2023-02-22T09:54:06.585Z,11.62
2023-02-22T09:56:34.480Z,11.67
2023-02-22T09:59:07.319Z,11.58
2023-02-22T10:01:43.585Z,11.64
2023-02-22T10:04:47.685Z,11.72
2023-02-22T10:07:20.571Z,11.93
2023-02-22T10:09:49.723Z,12.19
2023-02-22T10:12:32.779Z,12.12
2023-02-22T10:15:26.841Z,12.19
2023-02-22T10:17:59.809Z,12.39
2023-02-22T10:20:37.414Z,12.41
2023-02-22T10:23:20.667Z,12.70
2023-02-22T10:25:57.575Z,12.74
2023-02-22T10:28:31.724Z,12.94
2023-02-22T10:31:07.861Z,12.79
2023-02-22T10:33:48.665Z,12.79
2023-02-22T10:36:20.253Z,12.87
2023-02-22T10:38:58.633Z,12.97
2023-02-22T10:41:33.179Z,13.16
2023-02-22T10:44:03.074Z,13.32
2023-02-22T10:46:32.278Z,13.08
2023-02-22T10:49:07.561Z,13.42
2023-02-22T10:51:35.415Z,13.63
2023-02-22T10:54:14.719Z,13.59
2023-02-22T10:56:50.691Z,13.45
2023-02-22T10:59:35.904Z,13.69
2023-02-22T11:02:18.134Z,13.87
2023-02-22T11:04:53.868Z,14.01
2023-02-22T11:07:24.196Z,14.05
2023-02-22T11:09:51.338Z,14.06
2023-02-22T11:12:29.381Z,14.03
2023-02-22T11:14:57.096Z,13.82
2023-02-22T11:17:34.789Z,13.78
2023-02-22T11:20:01.933Z,13.81
2023-02-22T11:22:41.254Z,13.95
2023-02-22T11:25:19.037Z,14.04
2023-02-22T11:27:47.170Z,13.80
2023-02-22T11:30:47.962Z,14.02
2023-02-22T11:33:22.239Z,14.12
2023-02-22T11:35:53.431Z,13.98
2023-02-22T11:38:21.817Z,13.95
2023-02-22T11:41:05.164Z,14.20
2023-02-22T11:43:32.237Z,14.25
2023-02-22T11:46:08.577Z,14.34
2023-02-22T11:48:39.761Z,14.51
2023-02-22T11:51:22.031Z,14.53
2023-02-22T11:54:09.261Z,14.71
2023-02-22T11:57:10.523Z,14.62
2023-02-22T11:59:37.392Z,14.10
2023-02-22T12:02:24.389Z,14.41
2023-02-22T12:05:26.545Z,14.72
2023-02-22T12:08:29.028Z,14.66
2023-02-22T12:11:10.315Z,14.57
2023-02-22T12:13:49.237Z,14.56
2023-02-22T12:16:46.266Z,14.56
2023-02-22T12:19:22.324Z,14.69
2023-02-22T12:21:57.205Z,14.42
2023-02-22T12:24:34.431Z,14.80
2023-02-22T12:27:17.973Z,14.99
2023-02-22T12:30:13.220Z,14.82
2023-02-22T12:32:44.155Z,14.96
2023-02-22T12:35:22.869Z,15.18
2023-02-22T12:37:57.484Z,15.20
2023-02-22T12:40:30.013Z,15.27
2023-02-22T12:43:05.506Z,15.19
2023-02-22T12:45:50.700Z,15.27
2023-02-22T12:48:47.491Z,15.40
2023-02-22T12:51:38.888Z,15.58
2023-02-22T12:54:21.287Z,15.24
2023-02-22T12:56:51.198Z,15.20
2023-02-22T12:59:35.333Z,14.91
2023-02-22T13:02:16.168Z,15.03
2023-02-22T13:04:43.113Z,15.21
2023-02-22T13:07:18.558Z,14.98
2023-02-22T13:10:23.705Z,15.12
2023-02-22T13:13:20.989Z,14.42
2023-02-22T13:15:57.639Z,14.56
2023-02-22T13:18:38.219Z,14.48
2023-02-22T13:21:18.980Z,14.77
2023-02-22T13:24:17.244Z,14.97
2023-02-22T13:26:55.974Z,14.96
2023-02-22T13:29:30.477Z,14.92
2023-02-22T13:32:32.921Z,15.07
2023-02-22T13:35:22.937Z,15.13
2023-02-22T13:38:08.334Z,15.60
2023-02-22T13:40:56.775Z,15.97
2023-02-22T13:43:55.214Z,15.68
2023-02-22T13:46:43.416Z,15.29
2023-02-22T13:49:41.306Z,15.48
2023-02-22T13:52:37.529Z,15.26
2023-02-22T13:55:15.182Z,14.90
2023-02-22T13:57:49.837Z,14.90
2023-02-22T14:00:17.744Z,14.95
2023-02-22T14:03:01.401Z,15.03
2023-02-22T14:05:38.086Z,15.00
2023-02-22T14:08:05.785Z,15.23
2023-02-22T14:11:02.477Z,15.52
2023-02-22T14:13:55.352Z,15.71
2023-02-22T14:16:29.612Z,15.78
2023-02-22T14:19:17.807Z,15.52
2023-02-22T14:22:02.333Z,15.31
2023-02-22T14:24:48.099Z,15.50
2023-02-22T14:27:17.700Z,15.66
2023-02-22T14:30:26.209Z,15.66
2023-02-22T14:32:53.657Z,15.51
2023-02-22T14:35:28.638Z,15.43
2023-02-22T14:38:00.985Z,14.98
2023-02-22T14:40:32.789Z,14.95
2023-02-22T14:43:09.771Z,15.02
2023-02-22T14:45:45.925Z,15.00
2023-02-22T14:48:19.952Z,15.05
2023-02-22T14:50:53.262Z,15.15
2023-02-22T14:53:49.219Z,15.26
2023-02-22T14:56:36.360Z,15.65
2023-02-22T14:59:21.804Z,15.65
2023-02-22T15:02:05.727Z,15.58
2023-02-22T15:04:35.848Z,15.69
2023-02-22T15:07:22.254Z,15.70
2023-02-22T15:09:49.250Z,15.66
2023-02-22T15:12:31.238Z,15.70
2023-02-22T15:15:14.302Z,15.68
2023-02-22T15:17:41.791Z,15.68
2023-02-22T15:20:12.885Z,15.69
2023-02-22T15:22:39.871Z,15.69
2023-02-22T15:25:09.506Z,15.74
2023-02-22T15:27:37.450Z,15.52
2023-02-22T15:30:18.239Z,15.37
2023-02-22T15:33:02.603Z,15.44
2023-02-22T15:35:32.988Z,15.43
2023-02-22T15:38:00.182Z,15.42
2023-02-22T15:40:33.312Z,15.37
2023-02-22T15:43:10.811Z,15.24
2023-02-22T15:45:43.255Z,15.10
2023-02-22T15:48:11.933Z,15.10
2023-02-22T15:50:39.359Z,14.97
2023-02-22T15:53:09.607Z,14.92
2023-02-22T15:55:42.067Z,14.89
2023-02-22T15:58:14.764Z,14.75
2023-02-22T16:01:15.861Z,14.66
2023-02-22T16:03:47.767Z,14.67
2023-02-22T16:06:38.631Z,14.47
2023-02-22T16:09:11.271Z,14.46
2023-02-22T16:11:43.508Z,14.27
2023-02-22T16:14:42.789Z,14.09
2023-02-22T16:17:31.169Z,13.90
2023-02-22T16:20:02.796Z,13.70
2023-02-22T16:22:35.571Z,13.61
2023-02-22T16:25:27.527Z,13.46
2023-02-22T16:28:06.362Z,13.46
2023-02-22T16:30:39.676Z,13.32
2023-02-22T16:33:16.727Z,13.14
2023-02-22T16:35:52.242Z,13.02
2023-02-22T16:38:19.960Z,12.92
2023-02-22T16:40:53.993Z,12.77
2023-02-22T16:43:24.073Z,12.69
2023-02-22T16:45:53.218Z,12.64
2023-02-22T16:48:21.539Z,12.53
2023-02-22T16:50:51.212Z,12.44
2023-02-22T16:53:21.236Z,12.36
2023-02-22T16:55:49.101Z,12.35
2023-02-22T16:58:19.067Z,12.27
2023-02-22T17:00:45.864Z,12.22
2023-02-22T17:03:18.605Z,12.17
2023-02-22T17:05:45.614Z,12.08
2023-02-22T17:08:12.499Z,12.01
2023-02-22T17:10:39.373Z,11.98
2023-02-22T17:13:22.195Z,11.92
2023-02-22T17:15:50.125Z,12.03
2023-02-22T17:18:22.893Z,12.16
2023-02-22T17:20:53.276Z,12.12
2023-02-22T17:23:21.078Z,11.99
2023-02-22T17:25:56.553Z,11.85
2023-02-22T17:28:25.019Z,11.78
2023-02-22T17:30:53.855Z,11.84
2023-02-22T17:33:27.215Z,11.85
2023-02-22T17:35:56.497Z,12.02
2023-02-22T17:38:24.018Z,12.00
2023-02-22T17:40:55.010Z,11.87
2023-02-22T17:43:22.977Z,11.93
2023-02-22T17:45:50.173Z,11.85
2023-02-22T17:48:18.326Z,11.84
2023-02-22T17:50:46.691Z,11.70
2023-02-22T17:53:13.917Z,11.63
2023-02-22T17:55:42.671Z,11.47
2023-02-22T17:58:14.893Z,11.35
2023-02-22T18:00:44.763Z,11.40
2023-02-22T18:03:16.296Z,11.41
2023-02-22T18:05:46.611Z,11.30
2023-02-22T18:08:14.763Z,11.13
2023-02-22T18:10:42.784Z,11.14
2023-02-22T18:13:13.192Z,11.05
2023-02-22T18:15:40.744Z,11.01
2023-02-22T18:18:07.788Z,10.92
2023-02-22T18:20:43.542Z,10.88
2023-02-22T18:23:19.658Z,10.97
2023-02-22T18:26:07.785Z,11.06
2023-02-22T18:28:36.972Z,10.90
2023-02-22T18:31:15.344Z,10.85
2023-02-22T18:33:47.998Z,10.79
2023-02-22T18:36:16.703Z,10.69
2023-02-22T18:38:44.675Z,10.71
2023-02-22T18:41:14.402Z,10.65
2023-02-22T18:43:41.941Z,10.63
2023-02-22T18:46:09.974Z,10.57
2023-02-22T18:48:36.902Z,10.51
2023-02-22T18:51:06.308Z,10.46
2023-02-22T18:53:33.536Z,10.41
2023-02-22T18:56:22.408Z,10.36
2023-02-22T18:58:54.193Z,10.47
2023-02-22T19:01:22.328Z,10.38
2023-02-22T19:03:50.170Z,10.37
2023-02-22T19:06:18.822Z,10.35
2023-02-22T19:08:47.228Z,10.32
2023-02-22T19:11:19.595Z,10.10
2023-02-22T19:13:48.438Z,10.18
2023-02-22T19:16:19.999Z,10.02
2023-02-22T19:18:48.804Z,9.80
2023-02-22T19:21:16.480Z,9.80
2023-02-22T19:23:47.743Z,9.76
2023-02-22T19:26:26.462Z,9.66
2023-02-22T19:28:55.627Z,9.56
2023-02-22T19:31:26.747Z,9.46
2023-02-22T19:33:54.021Z,9.39
2023-02-22T19:36:25.623Z,9.37
2023-02-22T19:38:52.686Z,9.30
2023-02-22T19:41:22.425Z,9.23
2023-02-22T19:43:52.452Z,9.30
2023-02-22T19:46:21.511Z,9.33
2023-02-22T19:48:49.034Z,9.24
2023-02-22T19:51:17.495Z,9.23
2023-02-22T19:53:45.371Z,9.26
2023-02-22T19:56:13.845Z,9.32
2023-02-22T19:58:42.575Z,9.23
2023-02-22T20:01:23.235Z,9.32
2023-02-22T20:04:00.021Z,9.17
2023-02-22T20:06:29.812Z,9.20
2023-02-22T20:08:57.217Z,9.05
2023-02-22T20:11:25.461Z,9.01
2023-02-22T20:13:52.597Z,9.03
2023-02-22T20:16:19.463Z,8.98
2023-02-22T20:18:48.512Z,8.91
2023-02-22T20:21:23.274Z,8.85
2023-02-22T20:23:50.851Z,8.80
2023-02-22T20:26:20.655Z,8.72
2023-02-22T20:28:47.565Z,8.79
2023-02-22T20:31:15.772Z,8.85
2023-02-22T20:33:45.848Z,8.90
2023-02-22T20:36:14.640Z,8.87
2023-02-22T20:38:41.771Z,8.70
2023-02-22T20:41:14.591Z,8.67
2023-02-22T20:43:41.460Z,8.60
2023-02-22T20:46:08.450Z,8.59
2023-02-22T20:48:35.342Z,8.65
2023-02-22T20:51:10.196Z,8.58
2023-02-22T20:53:42.102Z,8.57
2023-02-22T20:56:17.486Z,8.63
2023-02-22T20:58:44.553Z,8.60
2023-02-22T21:01:13.972Z,8.54
2023-02-22T21:03:42.446Z,8.55
2023-02-22T21:06:14.945Z,8.48
2023-02-22T21:08:49.353Z,8.46
2023-02-22T21:11:18.694Z,8.67
2023-02-22T21:13:45.734Z,8.61
2023-02-22T21:16:20.844Z,8.67
2023-02-22T21:18:51.306Z,8.59
2023-02-22T21:21:19.146Z,8.43
2023-02-22T21:23:52.549Z,8.32
2023-02-22T21:26:25.470Z,8.26
2023-02-22T21:28:52.711Z,8.31
2023-02-22T21:31:23.219Z,8.37
2023-02-22T21:33:53.057Z,8.37
2023-02-22T21:36:21.482Z,8.35
2023-02-22T21:38:54.916Z,8.27
2023-02-22T21:41:24.443Z,8.54
2023-02-22T21:43:52.055Z,8.63
2023-02-22T21:46:19.262Z,8.63
2023-02-22T21:48:49.003Z,8.58
2023-02-22T21:51:25.550Z,8.57
2023-02-22T21:53:54.532Z,8.51
2023-02-22T21:56:24.467Z,8.53
2023-02-22T21:59:05.064Z,8.61
2023-02-22T22:01:34.396Z,8.62
2023-02-22T22:04:03.052Z,8.51
2023-02-22T22:06:32.314Z,8.40
2023-02-22T22:09:05.248Z,8.46
2023-02-22T22:11:33.355Z,8.39
2023-02-22T22:14:00.606Z,8.37
2023-02-22T22:16:30.238Z,8.29
2023-02-22T22:18:57.662Z,8.31
2023-02-22T22:21:25.575Z,8.29
2023-02-22T22:23:57.504Z,8.23
2023-02-22T22:26:25.881Z,8.34
2023-02-22T22:28:56.259Z,8.52
2023-02-22T22:31:26.244Z,8.41
2023-02-22T22:33:54.568Z,8.17
2023-02-22T22:36:22.793Z,7.99
2023-02-22T22:38:52.758Z,8.00
2023-02-22T22:41:22.114Z,7.97
2023-02-22T22:43:49.183Z,7.91
2023-02-22T22:46:18.109Z,7.83
2023-02-22T22:48:47.391Z,7.79
2023-02-22T22:51:20.747Z,7.71
2023-02-22T22:53:49.329Z,7.68
2023-02-22T22:56:17.945Z,7.71
2023-02-22T22:58:49.436Z,7.79
2023-02-22T23:01:18.557Z,7.62
2023-02-22T23:03:55.409Z,7.53
2023-02-22T23:06:28.300Z,7.65
2023-02-22T23:09:11.635Z,7.49
2023-02-22T23:11:45.172Z,7.40
2023-02-22T23:14:21.926Z,7.34
2023-02-22T23:16:51.527Z,7.42
2023-02-22T23:19:21.623Z,7.32
2023-02-22T23:21:50.304Z,7.15
2023-02-22T23:24:21.214Z,7.07
2023-02-22T23:26:51.367Z,7.02
2023-02-22T23:29:18.954Z,6.94
2023-02-22T23:31:48.614Z,6.87
2023-02-22T23:34:21.438Z,6.79
2023-02-22T23:36:49.668Z,6.81
2023-02-22T23:39:22.262Z,6.78
2023-02-22T23:41:59.550Z,6.71
2023-02-22T23:44:27.532Z,6.68
2023-02-22T23:46:55.829Z,6.65
2023-02-22T23:49:27.275Z,6.63
2023-02-22T23:51:55.138Z,6.57
2023-02-22T23:54:24.680Z,6.53
2023-02-22T23:56:58.239Z,6.39
2023-02-22T23:59:27.104Z,6.32
